sensor_id;sensor_type;location;lat;lon;timestamp;pressure;altitude;pressure_sealevel;temperature;humidity
2268;BME280;11052;43.338;25.502;2023-08-12T00:01:08;101008.28;;;17.81;100.00
2268;BME280;11052;43.338;25.502;2023-08-12T00:03:35;101007.56;;;17.77;100.00
2268;BME280;11052;43.338;25.502;2023-08-12T00:06:02;101005.09;;;17.74;100.00
2268;BME280;11052;43.338;25.502;2023-08-12T00:08:30;101004.16;;;17.75;100.00
2268;BME280;11052;43.338;25.502;2023-08-12T00:10:57;101007.16;;;17.67;100.00
2268;BME280;11052;43.338;25.502;2023-08-12T00:13:24;101012.25;;;17.71;100.00
2268;BME280;11052;43.338;25.502;2023-08-12T00:15:52;101006.31;;;17.67;100.00
2268;BME280;11052;43.338;25.502;2023-08-12T00:18:21;101003.81;;;17.64;100.00
2268;BME280;11052;43.338;25.502;2023-08-12T00:20:48;101010.75;;;17.65;100.00
2268;BME280;11052;43.338;25.502;2023-08-12T00:23:16;101003.69;;;17.67;100.00
2268;BME280;11052;43.338;25.502;2023-08-12T00:25:43;101003.88;;;17.62;100.00
2268;BME280;11052;43.338;25.502;2023-08-12T00:28:11;101004.53;;;17.67;100.00
2268;BME280;11052;43.338;25.502;2023-08-12T00:30:38;101008.09;;;17.66;100.00
2268;BME280;11052;43.338;25.502;2023-08-12T00:33:05;101013.03;;;17.73;100.00
2268;BME280;11052;43.338;25.502;2023-08-12T00:35:33;101009.56;;;17.72;100.00
2268;BME280;11052;43.338;25.502;2023-08-12T00:38:00;101009.41;;;17.75;100.00
2268;BME280;11052;43.338;25.502;2023-08-12T00:40:27;101008.56;;;17.75;100.00
2268;BME280;11052;43.338;25.502;2023-08-12T00:42:54;101018.44;;;17.69;100.00
2268;BME280;11052;43.338;25.502;2023-08-12T00:45:21;101015.94;;;17.66;100.00
2268;BME280;11052;43.338;25.502;2023-08-12T00:47:49;101015.09;;;17.66;100.00
2268;BME280;11052;43.338;25.502;2023-08-12T00:50:16;101012.97;;;17.55;100.00
2268;BME280;11052;43.338;25.502;2023-08-12T00:52:44;101018.56;;;17.48;100.00
2268;BME280;11052;43.338;25.502;2023-08-12T00:55:14;101014.91;;;17.33;100.00
2268;BME280;11052;43.338;25.502;2023-08-12T00:57:42;101013.63;;;17.23;100.00
2268;BME280;11052;43.338;25.502;2023-08-12T01:00:11;101015.91;;;17.30;100.00
2268;BME280;11052;43.338;25.502;2023-08-12T01:02:38;101014.22;;;17.29;100.00
2268;BME280;11052;43.338;25.502;2023-08-12T01:05:05;101016.91;;;17.28;100.00
2268;BME280;11052;43.338;25.502;2023-08-12T01:07:33;101011.72;;;17.26;100.00
2268;BME280;11052;43.338;25.502;2023-08-12T01:10:01;101010.09;;;17.24;100.00
2268;BME280;11052;43.338;25.502;2023-08-12T01:12:32;101005.56;;;17.27;100.00
2268;BME280;11052;43.338;25.502;2023-08-12T01:15:06;101014.22;;;17.29;100.00
2268;BME280;11052;43.338;25.502;2023-08-12T01:17:34;101017.53;;;17.14;100.00
2268;BME280;11052;43.338;25.502;2023-08-12T01:20:03;101016.13;;;17.07;100.00
2268;BME280;11052;43.338;25.502;2023-08-12T01:22:34;101012.06;;;17.00;100.00
2268;BME280;11052;43.338;25.502;2023-08-12T01:25:07;101007.97;;;16.94;100.00
2268;BME280;11052;43.338;25.502;2023-08-12T01:27:35;101006.13;;;16.96;100.00
2268;BME280;11052;43.338;25.502;2023-08-12T01:30:04;101010.44;;;16.97;100.00
2268;BME280;11052;43.338;25.502;2023-08-12T01:32:41;101011.50;;;16.93;100.00
2268;BME280;11052;43.338;25.502;2023-08-12T01:35:14;101019.19;;;16.78;100.00
2268;BME280;11052;43.338;25.502;2023-08-12T01:37:45;101017.94;;;16.66;100.00
2268;BME280;11052;43.338;25.502;2023-08-12T01:40:14;101033.75;;;16.63;100.00
2268;BME280;11052;43.338;25.502;2023-08-12T01:42:42;101038.06;;;16.64;100.00
2268;BME280;11052;43.338;25.502;2023-08-12T01:45:10;101037.56;;;16.56;100.00
2268;BME280;11052;43.338;25.502;2023-08-12T01:47:38;101037.13;;;16.66;100.00
2268;BME280;11052;43.338;25.502;2023-08-12T01:50:05;101044.44;;;16.58;100.00
2268;BME280;11052;43.338;25.502;2023-08-12T01:52:33;101044.97;;;16.46;100.00
2268;BME280;11052;43.338;25.502;2023-08-12T01:55:00;101040.44;;;16.50;100.00
2268;BME280;11052;43.338;25.502;2023-08-12T01:57:28;101043.06;;;16.50;100.00
2268;BME280;11052;43.338;25.502;2023-08-12T01:59:56;101045.91;;;16.45;100.00
2268;BME280;11052;43.338;25.502;2023-08-12T02:02:23;101045.66;;;16.50;100.00
2268;BME280;11052;43.338;25.502;2023-08-12T02:04:50;101040.09;;;16.57;100.00
2268;BME280;11052;43.338;25.502;2023-08-12T02:07:17;101049.00;;;16.53;100.00
2268;BME280;11052;43.338;25.502;2023-08-12T02:09:44;101051.81;;;16.49;100.00
2268;BME280;11052;43.338;25.502;2023-08-12T02:12:11;101057.41;;;16.41;100.00
2268;BME280;11052;43.338;25.502;2023-08-12T02:14:39;101056.50;;;16.42;100.00
2268;BME280;11052;43.338;25.502;2023-08-12T02:17:06;101054.25;;;16.33;100.00
2268;BME280;11052;43.338;25.502;2023-08-12T02:19:34;101057.91;;;16.29;100.00
2268;BME280;11052;43.338;25.502;2023-08-12T02:22:02;101059.38;;;16.36;100.00
2268;BME280;11052;43.338;25.502;2023-08-12T02:24:29;101056.03;;;16.32;100.00
2268;BME280;11052;43.338;25.502;2023-08-12T02:26:56;101059.38;;;16.36;100.00
2268;BME280;11052;43.338;25.502;2023-08-12T02:29:23;101062.28;;;16.28;100.00
2268;BME280;11052;43.338;25.502;2023-08-12T02:31:52;101070.34;;;16.24;100.00
2268;BME280;11052;43.338;25.502;2023-08-12T02:34:19;101073.25;;;16.16;100.00
2268;BME280;11052;43.338;25.502;2023-08-12T02:36:46;101074.78;;;16.00;100.00
2268;BME280;11052;43.338;25.502;2023-08-12T02:39:13;101076.31;;;16.05;100.00
2268;BME280;11052;43.338;25.502;2023-08-12T02:41:40;101071.94;;;16.06;100.00
2268;BME280;11052;43.338;25.502;2023-08-12T02:44:07;101083.91;;;16.12;100.00
2268;BME280;11052;43.338;25.502;2023-08-12T02:46:34;101088.22;;;16.13;100.00
2268;BME280;11052;43.338;25.502;2023-08-12T02:49:03;101087.31;;;16.14;100.00
2268;BME280;11052;43.338;25.502;2023-08-12T02:51:30;101090.00;;;16.12;100.00
2268;BME280;11052;43.338;25.502;2023-08-12T02:53:57;101096.19;;;16.10;100.00
2268;BME280;11052;43.338;25.502;2023-08-12T02:56:24;101099.53;;;15.91;100.00
2268;BME280;11052;43.338;25.502;2023-08-12T02:58:51;101099.53;;;15.91;100.00
2268;BME280;11052;43.338;25.502;2023-08-12T03:01:18;101095.97;;;15.94;100.00
2268;BME280;11052;43.338;25.502;2023-08-12T03:03:45;101094.19;;;15.94;100.00
2268;BME280;11052;43.338;25.502;2023-08-12T03:06:14;101089.16;;;15.90;100.00
2268;BME280;11052;43.338;25.502;2023-08-12T03:08:41;101082.81;;;15.95;100.00
2268;BME280;11052;43.338;25.502;2023-08-12T03:11:08;101084.94;;;15.86;100.00
2268;BME280;11052;43.338;25.502;2023-08-12T03:13:35;101081.25;;;15.91;100.00
2268;BME280;11052;43.338;25.502;2023-08-12T03:16:02;101085.63;;;15.91;100.00
2268;BME280;11052;43.338;25.502;2023-08-12T03:18:29;101077.88;;;15.88;100.00
2268;BME280;11052;43.338;25.502;2023-08-12T03:20:56;101081.59;;;15.82;100.00
2268;BME280;11052;43.338;25.502;2023-08-12T03:23:25;101083.38;;;15.82;100.00
2268;BME280;11052;43.338;25.502;2023-08-12T03:25:52;101089.69;;;15.76;100.00
2268;BME280;11052;43.338;25.502;2023-08-12T03:28:21;101092.88;;;15.61;100.00
2268;BME280;11052;43.338;25.502;2023-08-12T03:30:51;101092.19;;;15.56;100.00
2268;BME280;11052;43.338;25.502;2023-08-12T03:33:18;101094.59;;;15.62;100.00
2268;BME280;11052;43.338;25.502;2023-08-12T03:35:45;101095.94;;;15.72;100.00
2268;BME280;11052;43.338;25.502;2023-08-12T03:38:12;101096.06;;;15.69;100.00
2268;BME280;11052;43.338;25.502;2023-08-12T03:40:41;101100.38;;;15.70;100.00
2268;BME280;11052;43.338;25.502;2023-08-12T03:43:09;101095.75;;;15.77;100.00
2268;BME280;11052;43.338;25.502;2023-08-12T03:45:39;101099.91;;;15.82;100.00
2268;BME280;11052;43.338;25.502;2023-08-12T03:48:07;101100.69;;;15.84;100.00
2268;BME280;11052;43.338;25.502;2023-08-12T03:50:34;101093.75;;;15.83;100.00
2268;BME280;11052;43.338;25.502;2023-08-12T03:53:02;101094.06;;;15.76;100.00
2268;BME280;11052;43.338;25.502;2023-08-12T03:55:30;101098.38;;;15.77;100.00
2268;BME280;11052;43.338;25.502;2023-08-12T03:58:00;101100.03;;;15.79;100.00
2268;BME280;11052;43.338;25.502;2023-08-12T04:00:27;101100.50;;;15.89;100.00
2268;BME280;11052;43.338;25.502;2023-08-12T04:02:54;101113.41;;;15.93;100.00
2268;BME280;11052;43.338;25.502;2023-08-12T04:05:21;101116.13;;;15.90;100.00
2268;BME280;11052;43.338;25.502;2023-08-12T04:07:48;101119.84;;;15.85;100.00
2268;BME280;11052;43.338;25.502;2023-08-12T04:10:15;101129.69;;;15.78;100.00
2268;BME280;11052;43.338;25.502;2023-08-12T04:12:43;101129.44;;;15.84;100.00
2268;BME280;11052;43.338;25.502;2023-08-12T04:15:11;101131.53;;;15.98;100.00
2268;BME280;11052;43.338;25.502;2023-08-12T04:17:39;101129.47;;;16.06;100.00
2268;BME280;11052;43.338;25.502;2023-08-12T04:20:07;101134.75;;;16.04;100.00
2268;BME280;11052;43.338;25.502;2023-08-12T04:22:35;101130.25;;;16.08;100.00
2268;BME280;11052;43.338;25.502;2023-08-12T04:25:02;101132.47;;;16.19;100.00
2268;BME280;11052;43.338;25.502;2023-08-12T04:27:29;101128.38;;;16.33;100.00
2268;BME280;11052;43.338;25.502;2023-08-12T04:29:56;101128.72;;;16.46;100.00
2268;BME280;11052;43.338;25.502;2023-08-12T04:32:25;101128.84;;;16.63;100.00
2268;BME280;11052;43.338;25.502;2023-08-12T04:34:52;101124.72;;;16.80;100.00
2268;BME280;11052;43.338;25.502;2023-08-12T04:37:19;101124.69;;;17.00;100.00
2268;BME280;11052;43.338;25.502;2023-08-12T04:39:47;101121.53;;;17.32;100.00
2268;BME280;11052;43.338;25.502;2023-08-12T04:42:18;101118.34;;;17.63;100.00
2268;BME280;11052;43.338;25.502;2023-08-12T04:44:46;101114.22;;;17.95;100.00
2268;BME280;11052;43.338;25.502;2023-08-12T04:47:13;101126.81;;;18.42;100.00
2268;BME280;11052;43.338;25.502;2023-08-12T04:49:41;101115.88;;;18.86;100.00
2268;BME280;11052;43.338;25.502;2023-08-12T04:52:08;101116.75;;;19.35;100.00
2268;BME280;11052;43.338;25.502;2023-08-12T04:54:35;101123.22;;;19.78;100.00
2268;BME280;11052;43.338;25.502;2023-08-12T04:57:03;101123.78;;;20.15;100.00
2268;BME280;11052;43.338;25.502;2023-08-12T04:59:31;101120.00;;;20.50;100.00
2268;BME280;11052;43.338;25.502;2023-08-12T05:01:58;101122.59;;;20.80;100.00
2268;BME280;11052;43.338;25.502;2023-08-12T05:04:25;101128.06;;;20.91;100.00
2268;BME280;11052;43.338;25.502;2023-08-12T05:06:53;101130.25;;;21.13;100.00
2268;BME280;11052;43.338;25.502;2023-08-12T05:09:20;101138.22;;;21.27;100.00
2268;BME280;11052;43.338;25.502;2023-08-12T05:11:48;101137.75;;;21.49;100.00
2268;BME280;11052;43.338;25.502;2023-08-12T05:14:15;101141.00;;;21.67;100.00
2268;BME280;11052;43.338;25.502;2023-08-12T05:16:42;101136.81;;;21.91;100.00
2268;BME280;11052;43.338;25.502;2023-08-12T05:19:09;101133.97;;;21.95;100.00
2268;BME280;11052;43.338;25.502;2023-08-12T05:21:36;101133.56;;;22.15;100.00
2268;BME280;11052;43.338;25.502;2023-08-12T05:24:05;101139.50;;;22.45;100.00
2268;BME280;11052;43.338;25.502;2023-08-12T05:26:33;101132.59;;;22.43;100.00
2268;BME280;11052;43.338;25.502;2023-08-12T05:29:00;101136.81;;;22.85;100.00
2268;BME280;11052;43.338;25.502;2023-08-12T05:31:27;101144.03;;;23.21;100.00
2268;BME280;11052;43.338;25.502;2023-08-12T05:33:54;101141.56;;;23.43;100.00
2268;BME280;11052;43.338;25.502;2023-08-12T05:36:21;101145.25;;;23.66;100.00
2268;BME280;11052;43.338;25.502;2023-08-12T05:38:48;101143.72;;;23.88;100.00
2268;BME280;11052;43.338;25.502;2023-08-12T05:41:17;101149.47;;;23.81;100.00
2268;BME280;11052;43.338;25.502;2023-08-12T05:43:44;101144.41;;;24.02;100.00
2268;BME280;11052;43.338;25.502;2023-08-12T05:46:11;101136.25;;;24.05;100.00
2268;BME280;11052;43.338;25.502;2023-08-12T05:48:38;101135.00;;;24.22;100.00
2268;BME280;11052;43.338;25.502;2023-08-12T05:51:05;101137.19;;;24.52;100.00
2268;BME280;11052;43.338;25.502;2023-08-12T05:53:32;101147.25;;;24.36;100.00
2268;BME280;11052;43.338;25.502;2023-08-12T05:55:59;101145.03;;;24.30;100.00
2268;BME280;11052;43.338;25.502;2023-08-12T05:58:28;101145.63;;;24.22;100.00
2268;BME280;11052;43.338;25.502;2023-08-12T06:00:55;101138.38;;;24.48;100.00
2268;BME280;11052;43.338;25.502;2023-08-12T06:03:22;101145.97;;;24.88;100.00
2268;BME280;11052;43.338;25.502;2023-08-12T06:05:49;101132.91;;;25.08;100.00
2268;BME280;11052;43.338;25.502;2023-08-12T06:08:16;101136.75;;;25.49;100.00
2268;BME280;11052;43.338;25.502;2023-08-12T06:10:43;101138.44;;;25.84;100.00
2268;BME280;11052;43.338;25.502;2023-08-12T06:13:10;101131.66;;;25.91;91.33
2268;BME280;11052;43.338;25.502;2023-08-12T06:15:38;101132.38;;;26.25;87.62
2268;BME280;11052;43.338;25.502;2023-08-12T06:18:06;101139.66;;;26.55;85.29
2268;BME280;11052;43.338;25.502;2023-08-12T06:20:33;101133.13;;;26.59;81.29
2268;BME280;11052;43.338;25.502;2023-08-12T06:23:01;101123.47;;;26.88;81.11
2268;BME280;11052;43.338;25.502;2023-08-12T06:25:28;101120.16;;;26.96;76.40
2268;BME280;11052;43.338;25.502;2023-08-12T06:27:55;101124.69;;;26.54;74.86
2268;BME280;11052;43.338;25.502;2023-08-12T06:30:24;101127.84;;;26.48;82.66
2268;BME280;11052;43.338;25.502;2023-08-12T06:32:52;101130.72;;;26.56;79.48
2268;BME280;11052;43.338;25.502;2023-08-12T06:35:19;101131.69;;;26.55;78.46
2268;BME280;11052;43.338;25.502;2023-08-12T06:37:46;101124.22;;;26.69;76.37
2268;BME280;11052;43.338;25.502;2023-08-12T06:40:13;101132.09;;;26.71;79.19
2268;BME280;11052;43.338;25.502;2023-08-12T06:42:40;101126.47;;;26.95;75.65
2268;BME280;11052;43.338;25.502;2023-08-12T06:45:09;101123.44;;;26.99;77.85
2268;BME280;11052;43.338;25.502;2023-08-12T06:47:36;101123.72;;;26.96;76.82
2268;BME280;11052;43.338;25.502;2023-08-12T06:50:05;101120.66;;;27.31;76.77
2268;BME280;11052;43.338;25.502;2023-08-12T06:52:32;101125.41;;;27.28;74.08
2268;BME280;11052;43.338;25.502;2023-08-12T06:54:59;101114.44;;;27.21;70.52
2268;BME280;11052;43.338;25.502;2023-08-12T06:57:26;101116.47;;;27.38;72.59
2268;BME280;11052;43.338;25.502;2023-08-12T06:59:53;101120.56;;;27.73;79.83
2268;BME280;11052;43.338;25.502;2023-08-12T07:02:20;101119.44;;;27.95;70.32
2268;BME280;11052;43.338;25.502;2023-08-12T07:04:47;101120.13;;;27.78;71.46
2268;BME280;11052;43.338;25.502;2023-08-12T07:07:16;101110.91;;;28.11;70.37
2268;BME280;11052;43.338;25.502;2023-08-12T07:09:43;101110.31;;;27.97;74.53
2268;BME280;11052;43.338;25.502;2023-08-12T07:12:10;101116.03;;;27.73;66.66
2268;BME280;11052;43.338;25.502;2023-08-12T07:14:37;101104.88;;;27.49;68.96
2268;BME280;11052;43.338;25.502;2023-08-12T07:17:04;101109.59;;;27.66;69.04
2268;BME280;11052;43.338;25.502;2023-08-12T07:19:31;101105.13;;;27.96;69.32
2268;BME280;11052;43.338;25.502;2023-08-12T07:21:58;101098.03;;;28.25;69.81
2268;BME280;11052;43.338;25.502;2023-08-12T07:24:27;101097.16;;;28.54;68.31
2268;BME280;11052;43.338;25.502;2023-08-12T07:26:54;101098.00;;;28.54;66.08
2268;BME280;11052;43.338;25.502;2023-08-12T07:29:21;101095.00;;;28.86;65.00
2268;BME280;11052;43.338;25.502;2023-08-12T07:31:48;101098.16;;;29.09;65.00
2268;BME280;11052;43.338;25.502;2023-08-12T07:34:15;101100.53;;;29.12;64.82
2268;BME280;11052;43.338;25.502;2023-08-12T07:36:42;101105.88;;;29.12;69.20
2268;BME280;11052;43.338;25.502;2023-08-12T07:39:10;101094.63;;;29.18;64.31
2268;BME280;11052;43.338;25.502;2023-08-12T07:41:38;101102.19;;;29.23;65.11
2268;BME280;11052;43.338;25.502;2023-08-12T07:44:05;101099.72;;;29.02;58.96
2268;BME280;11052;43.338;25.502;2023-08-12T07:46:32;101099.34;;;28.87;57.68
2268;BME280;11052;43.338;25.502;2023-08-12T07:48:59;101092.91;;;28.70;61.16
2268;BME280;11052;43.338;25.502;2023-08-12T07:51:26;101095.06;;;28.48;55.70
2268;BME280;11052;43.338;25.502;2023-08-12T07:53:53;101099.94;;;28.62;58.53
2268;BME280;11052;43.338;25.502;2023-08-12T07:56:20;101104.41;;;28.90;58.77
2268;BME280;11052;43.338;25.502;2023-08-12T07:58:49;101094.44;;;28.73;57.31
2268;BME280;11052;43.338;25.502;2023-08-12T08:01:16;101094.22;;;28.57;55.92
2268;BME280;11052;43.338;25.502;2023-08-12T08:03:43;101094.38;;;28.46;58.30
2268;BME280;11052;43.338;25.502;2023-08-12T08:06:10;101094.78;;;28.51;55.43
2268;BME280;11052;43.338;25.502;2023-08-12T08:08:37;101094.94;;;28.39;54.48
2268;BME280;11052;43.338;25.502;2023-08-12T08:11:04;101094.56;;;28.81;61.74
2268;BME280;11052;43.338;25.502;2023-08-12T08:13:31;101092.38;;;29.14;61.77
2268;BME280;11052;43.338;25.502;2023-08-12T08:16:00;101090.81;;;29.48;63.31
2268;BME280;11052;43.338;25.502;2023-08-12T08:18:27;101091.44;;;29.42;54.40
2268;BME280;11052;43.338;25.502;2023-08-12T08:20:54;101100.84;;;29.46;58.82
2268;BME280;11052;43.338;25.502;2023-08-12T08:23:21;101087.13;;;29.77;59.27
2268;BME280;11052;43.338;25.502;2023-08-12T08:25:48;101088.75;;;29.87;57.69
2268;BME280;11052;43.338;25.502;2023-08-12T08:28:15;101092.16;;;30.07;62.33
2268;BME280;11052;43.338;25.502;2023-08-12T08:30:43;101093.75;;;30.18;60.24
2268;BME280;11052;43.338;25.502;2023-08-12T08:33:11;101088.41;;;30.00;58.77
2268;BME280;11052;43.338;25.502;2023-08-12T08:35:38;101083.06;;;29.73;55.74
2268;BME280;11052;43.338;25.502;2023-08-12T08:38:05;101078.13;;;29.78;57.39
2268;BME280;11052;43.338;25.502;2023-08-12T08:40:32;101073.75;;;29.77;58.96
2268;BME280;11052;43.338;25.502;2023-08-12T08:43:02;101076.78;;;30.09;64.89
2268;BME280;11052;43.338;25.502;2023-08-12T08:45:32;101077.41;;;30.03;55.94
2268;BME280;11052;43.338;25.502;2023-08-12T08:48:00;101077.88;;;29.71;53.31
2268;BME280;11052;43.338;25.502;2023-08-12T08:50:29;101068.00;;;29.26;55.72
2268;BME280;11052;43.338;25.502;2023-08-12T08:52:57;101068.94;;;29.35;58.68
2268;BME280;11052;43.338;25.502;2023-08-12T08:55:24;101064.88;;;29.58;60.64
2268;BME280;11052;43.338;25.502;2023-08-12T08:57:52;101066.09;;;29.46;56.25
2268;BME280;11052;43.338;25.502;2023-08-12T09:00:19;101065.50;;;28.88;58.33
2268;BME280;11052;43.338;25.502;2023-08-12T09:02:47;101058.06;;;28.72;61.33
2268;BME280;11052;43.338;25.502;2023-08-12T09:05:15;101063.25;;;28.73;60.01
2268;BME280;11052;43.338;25.502;2023-08-12T09:07:44;101058.97;;;28.53;58.37
2268;BME280;11052;43.338;25.502;2023-08-12T09:10:12;101058.97;;;28.53;60.21
2268;BME280;11052;43.338;25.502;2023-08-12T09:12:40;101056.03;;;28.47;56.57
2268;BME280;11052;43.338;25.502;2023-08-12T09:15:07;101050.41;;;28.50;57.16
2268;BME280;11052;43.338;25.502;2023-08-12T09:17:35;101051.53;;;28.47;59.49
2268;BME280;11052;43.338;25.502;2023-08-12T09:20:02;101045.72;;;28.61;59.28
2268;BME280;11052;43.338;25.502;2023-08-12T09:22:32;101048.56;;;28.60;61.89
2268;BME280;11052;43.338;25.502;2023-08-12T09:25:01;101045.53;;;28.92;59.33
2268;BME280;11052;43.338;25.502;2023-08-12T09:27:30;101043.72;;;29.20;62.13
2268;BME280;11052;43.338;25.502;2023-08-12T09:29:58;101039.59;;;29.53;60.84
2268;BME280;11052;43.338;25.502;2023-08-12T09:32:25;101045.66;;;29.90;59.96
2268;BME280;11052;43.338;25.502;2023-08-12T09:34:56;101030.63;;;29.89;52.13
2268;BME280;11052;43.338;25.502;2023-08-12T09:37:24;101032.44;;;29.71;58.94
2268;BME280;11052;43.338;25.502;2023-08-12T09:39:51;101032.75;;;29.68;53.43
2268;BME280;11052;43.338;25.502;2023-08-12T09:42:20;101030.94;;;30.04;55.98
2268;BME280;11052;43.338;25.502;2023-08-12T09:44:47;101028.31;;;29.59;53.20
2268;BME280;11052;43.338;25.502;2023-08-12T09:47:14;101022.50;;;29.63;54.57
2268;BME280;11052;43.338;25.502;2023-08-12T09:49:41;101011.28;;;29.78;59.79
2268;BME280;11052;43.338;25.502;2023-08-12T09:52:08;101015.34;;;29.99;56.30
2268;BME280;11052;43.338;25.502;2023-08-12T09:54:35;101013.13;;;30.13;56.56
2268;BME280;11052;43.338;25.502;2023-08-12T09:57:04;101021.38;;;30.19;55.43
2268;BME280;11052;43.338;25.502;2023-08-12T09:59:35;101010.03;;;30.51;54.72
2268;BME280;11052;43.338;25.502;2023-08-12T10:02:03;101010.53;;;30.73;58.75
2268;BME280;11052;43.338;25.502;2023-08-12T10:04:36;101005.28;;;30.63;54.05
2268;BME280;11052;43.338;25.502;2023-08-12T10:07:05;101004.50;;;30.71;56.30
2268;BME280;11052;43.338;25.502;2023-08-12T10:09:33;101001.41;;;30.91;57.14
2268;BME280;11052;43.338;25.502;2023-08-12T10:12:01;100996.66;;;31.11;58.52
2268;BME280;11052;43.338;25.502;2023-08-12T10:14:29;100996.13;;;31.08;55.42
2268;BME280;11052;43.338;25.502;2023-08-12T10:16:58;100987.75;;;31.03;55.56
2268;BME280;11052;43.338;25.502;2023-08-12T10:19:26;100987.03;;;30.92;51.92
2268;BME280;11052;43.338;25.502;2023-08-12T10:21:55;100980.63;;;30.85;57.33
2268;BME280;11052;43.338;25.502;2023-08-12T10:24:23;100982.78;;;31.24;55.68
2268;BME280;11052;43.338;25.502;2023-08-12T10:26:51;100975.69;;;31.07;52.92
2268;BME280;11052;43.338;25.502;2023-08-12T10:29:19;100974.53;;;31.09;52.24
2268;BME280;11052;43.338;25.502;2023-08-12T10:31:46;100975.44;;;31.18;52.29
2268;BME280;11052;43.338;25.502;2023-08-12T10:34:22;100969.59;;;31.47;54.40
2268;BME280;11052;43.338;25.502;2023-08-12T10:36:54;100973.63;;;31.43;52.87
2268;BME280;11052;43.338;25.502;2023-08-12T10:39:24;100966.06;;;31.38;51.69
2268;BME280;11052;43.338;25.502;2023-08-12T10:41:54;100958.38;;;31.43;52.63
2268;BME280;11052;43.338;25.502;2023-08-12T10:44:24;100964.88;;;31.33;51.89
2268;BME280;11052;43.338;25.502;2023-08-12T10:46:53;100960.78;;;31.04;51.08
2268;BME280;11052;43.338;25.502;2023-08-12T10:49:22;100962.16;;;31.08;50.23
2268;BME280;11052;43.338;25.502;2023-08-12T10:51:51;100955.00;;;31.17;50.22
2268;BME280;11052;43.338;25.502;2023-08-12T10:54:21;100957.03;;;31.31;52.63
2268;BME280;11052;43.338;25.502;2023-08-12T10:57:11;100948.34;;;31.53;51.88
2268;BME280;11052;43.338;25.502;2023-08-12T10:59:52;100946.00;;;31.67;52.70
2268;BME280;11052;43.338;25.502;2023-08-12T11:02:30;100943.03;;;31.86;54.19
2268;BME280;11052;43.338;25.502;2023-08-12T11:05:04;100941.66;;;31.57;52.71
2268;BME280;11052;43.338;25.502;2023-08-12T11:07:34;100942.31;;;31.43;50.17
2268;BME280;11052;43.338;25.502;2023-08-12T11:10:05;100945.91;;;31.10;51.39
2268;BME280;11052;43.338;25.502;2023-08-12T11:12:36;100938.34;;;30.97;50.74
2268;BME280;11052;43.338;25.502;2023-08-12T11:15:04;100927.84;;;30.70;49.68
2268;BME280;11052;43.338;25.502;2023-08-12T11:17:35;100923.69;;;31.17;52.68
2268;BME280;11052;43.338;25.502;2023-08-12T11:20:05;100926.56;;;31.48;57.41
2268;BME280;11052;43.338;25.502;2023-08-12T11:22:36;100919.56;;;31.88;54.87
2268;BME280;11052;43.338;25.502;2023-08-12T11:25:05;100920.16;;;32.14;50.97
2268;BME280;11052;43.338;25.502;2023-08-12T11:27:40;100919.81;;;32.17;54.63
2268;BME280;11052;43.338;25.502;2023-08-12T11:30:09;100921.34;;;32.12;49.65
2268;BME280;11052;43.338;25.502;2023-08-12T11:32:38;100914.34;;;31.62;48.23
2268;BME280;11052;43.338;25.502;2023-08-12T11:35:08;100912.63;;;31.20;49.16
2268;BME280;11052;43.338;25.502;2023-08-12T11:37:36;100903.03;;;31.02;49.17
2268;BME280;11052;43.338;25.502;2023-08-12T11:40:05;100896.69;;;31.03;51.87
2268;BME280;11052;43.338;25.502;2023-08-12T11:42:34;100902.94;;;31.36;48.98
2268;BME280;11052;43.338;25.502;2023-08-12T11:45:02;100893.38;;;31.17;48.88
2268;BME280;11052;43.338;25.502;2023-08-12T11:47:29;100896.22;;;31.40;53.45
2268;BME280;11052;43.338;25.502;2023-08-12T11:49:57;100894.41;;;31.48;50.07
2268;BME280;11052;43.338;25.502;2023-08-12T11:52:25;100893.88;;;31.45;49.88
2268;BME280;11052;43.338;25.502;2023-08-12T11:54:53;100881.00;;;31.48;51.78
2268;BME280;11052;43.338;25.502;2023-08-12T11:57:22;100879.97;;;31.41;51.01
2268;BME280;11052;43.338;25.502;2023-08-12T11:59:49;100886.56;;;31.71;51.68
2268;BME280;11052;43.338;25.502;2023-08-12T12:02:16;100874.63;;;31.98;48.83
2268;BME280;11052;43.338;25.502;2023-08-12T12:04:44;100868.59;;;31.96;47.67
2268;BME280;11052;43.338;25.502;2023-08-12T12:07:18;100868.25;;;31.99;50.02
2268;BME280;11052;43.338;25.502;2023-08-12T12:09:50;100869.16;;;32.31;50.89
2268;BME280;11052;43.338;25.502;2023-08-12T12:12:18;100868.56;;;32.04;51.21
2268;BME280;11052;43.338;25.502;2023-08-12T12:14:46;100861.06;;;31.83;49.81
2268;BME280;11052;43.338;25.502;2023-08-12T12:17:14;100852.50;;;31.47;49.60
2268;BME280;11052;43.338;25.502;2023-08-12T12:19:42;100857.03;;;31.63;50.97
2268;BME280;11052;43.338;25.502;2023-08-12T12:22:10;100849.50;;;31.83;52.06
2268;BME280;11052;43.338;25.502;2023-08-12T12:24:47;100850.50;;;31.57;48.73
2268;BME280;11052;43.338;25.502;2023-08-12T12:27:14;100849.34;;;31.44;49.10
2268;BME280;11052;43.338;25.502;2023-08-12T12:29:41;100845.16;;;31.49;50.38
2268;BME280;11052;43.338;25.502;2023-08-12T12:32:09;100849.34;;;31.52;51.83
2268;BME280;11052;43.338;25.502;2023-08-12T12:34:38;100847.31;;;31.29;50.07
2268;BME280;11052;43.338;25.502;2023-08-12T12:37:05;100844.84;;;31.20;52.13
2268;BME280;11052;43.338;25.502;2023-08-12T12:39:32;100839.03;;;30.82;50.54
2268;BME280;11052;43.338;25.502;2023-08-12T12:42:01;100838.34;;;30.72;50.96
2268;BME280;11052;43.338;25.502;2023-08-12T12:44:28;100831.88;;;30.49;53.45
2268;BME280;11052;43.338;25.502;2023-08-12T12:46:56;100828.56;;;30.55;51.66
2268;BME280;11052;43.338;25.502;2023-08-12T12:49:23;100831.91;;;30.57;49.93